Time;durP1;ratioP1;P1;durP2;ratioP2;P2;SDS_P1;SDS_P2;PMS_P1;PMS_P2;Temp;Humidity;BMP_temperature;BMP_pressure;BME280_temperature;BME280_humidity;BME280_pressure;Samples;Min_cycle;Max_cycle;Signal;HPM_P1;HPM_P2
2022/09/08 00:00:47;;;;;;;2.70;1.00;;;;;;;;;;5034507;28;20463;-64
2022/09/08 00:03:15;;;;;;;3.17;1.67;;;;;;;;;;5019531;28;20861;-64
2022/09/08 00:05:44;;;;;;;4.00;1.43;;;;;;;;;;5014474;28;20607;-64
2022/09/08 00:08:13;;;;;;;3.30;1.13;;;;;;;;;;5028224;28;20565;-64
2022/09/08 00:10:41;;;;;;;3.50;1.23;;;;;;;;;;5034452;28;20528;-64
2022/09/08 00:13:08;;;;;;;2.47;1.23;;;;;;;;;;5019749;28;20541;-64
2022/09/08 00:15:37;;;;;;;3.03;1.10;;;;;;;;;;5014169;28;20443;-64
2022/09/08 00:18:06;;;;;;;2.50;1.13;;;;;;;;;;5025869;28;20469;-64
2022/09/08 00:20:33;;;;;;;2.90;0.90;;;;;;;;;;5034108;28;20452;-64
2022/09/08 00:23:03;;;;;;;3.07;1.20;;;;;;;;;;5022860;28;20446;-64
2022/09/08 00:25:32;;;;;;;2.00;1.03;;;;;;;;;;5014421;28;20437;-64
2022/09/08 00:28:00;;;;;;;2.33;1.00;;;;;;;;;;5023658;28;20531;-64
2022/09/08 00:30:28;;;;;;;3.50;1.00;;;;;;;;;;5033783;28;20441;-64
2022/09/08 00:32:55;;;;;;;4.03;1.20;;;;;;;;;;5024736;28;20448;-63
2022/09/08 00:35:22;;;;;;;2.70;1.10;;;;;;;;;;5014061;28;20441;-64
2022/09/08 00:37:52;;;;;;;3.27;1.20;;;;;;;;;;5020703;28;20485;-64
2022/09/08 00:40:20;;;;;;;3.83;1.00;;;;;;;;;;5033758;28;20499;-63
2022/09/08 00:42:49;;;;;;;2.83;1.03;;;;;;;;;;5026432;28;20438;-64
2022/09/08 00:45:17;;;;;;;2.10;1.10;;;;;;;;;;5013933;28;20743;-64
2022/09/08 00:47:47;;;;;;;3.40;1.40;;;;;;;;;;5013108;28;20580;-64
2022/09/08 00:50:17;;;;;;;2.17;1.17;;;;;;;;;;5013326;28;20453;-64
2022/09/08 00:52:50;;;;;;;2.40;1.17;;;;;;;;;;5018148;28;20437;-64
2022/09/08 00:55:17;;;;;;;2.00;1.03;;;;;;;;;;5033532;28;20448;-64
2022/09/08 00:57:45;;;;;;;2.37;1.20;;;;;;;;;;5030505;28;20484;-64
2022/09/08 01:00:16;;;;;;;2.30;1.13;;;;;;;;;;5033489;28;20442;-64
2022/09/08 01:02:45;;;;;;;3.63;1.20;;;;;;;;;;5029106;28;20934;-63
2022/09/08 01:05:15;;;;;;;2.20;1.10;;;;;;;;;;5013594;28;20449;-63
2022/09/08 01:13:35;;;;;;;2.00;1.10;;;;;;;;;;5033395;28;21004;-64
2022/09/08 01:16:05;;;;;;;3.40;1.30;;;;;;;;;;5028329;28;20444;-63
2022/09/08 01:18:35;;;;;;;3.33;1.00;;;;;;;;;;5013570;28;20797;-64
2022/09/08 01:21:08;;;;;;;3.83;1.17;;;;;;;;;;5017052;28;20443;-63
2022/09/08 01:23:43;;;;;;;2.60;1.40;;;;;;;;;;5033210;28;20439;-63
2022/09/08 01:26:18;;;;;;;3.40;1.27;;;;;;;;;;5028236;28;20448;-63
2022/09/08 01:28:48;;;;;;;2.50;1.60;;;;;;;;;;5012549;28;20448;-64
2022/09/08 01:31:15;;;;;;;5.77;1.10;;;;;;;;;;5017185;28;20789;-63
2022/09/08 01:33:43;;;;;;;2.47;1.23;;;;;;;;;;5027395;28;20501;-63
2022/09/08 01:36:11;;;;;;;6.50;1.23;;;;;;;;;;5028323;28;20472;-63
2022/09/08 01:38:38;;;;;;;3.63;1.50;;;;;;;;;;5013000;28;20478;-64
2022/09/08 01:41:06;;;;;;;4.90;1.67;;;;;;;;;;5014473;28;20936;-63
2022/09/08 01:43:33;;;;;;;2.90;1.40;;;;;;;;;;5032745;28;20447;-63
2022/09/08 01:46:02;;;;;;;2.40;1.20;;;;;;;;;;5028266;28;20448;-68
2022/09/08 01:48:29;;;;;;;2.80;1.40;;;;;;;;;;5025177;28;20477;-63
2022/09/08 01:51:00;;;;;;;2.40;1.00;;;;;;;;;;5032426;28;20448;-64
2022/09/08 01:53:27;;;;;;;2.20;1.27;;;;;;;;;;5032635;28;20459;-65
2022/09/08 01:55:55;;;;;;;2.50;1.00;;;;;;;;;;5032079;28;20453;-63
2022/09/08 01:58:22;;;;;;;4.67;1.30;;;;;;;;;;5032786;28;20777;-64
2022/09/08 02:00:50;;;;;;;2.13;1.30;;;;;;;;;;5013608;28;20942;-63
2022/09/08 02:03:21;;;;;;;1.90;0.77;;;;;;;;;;5012703;28;20475;-63
2022/09/08 02:05:48;;;;;;;3.47;1.07;;;;;;;;;;5029070;28;20527;-63
2022/09/08 02:08:15;;;;;;;3.80;1.77;;;;;;;;;;5031960;28;20468;-64
2022/09/08 02:10:43;;;;;;;1.90;0.80;;;;;;;;;;5012634;28;20883;-63
2022/09/08 02:13:11;;;;;;;2.13;1.03;;;;;;;;;;5015681;28;20440;-63
2022/09/08 02:15:38;;;;;;;2.90;1.10;;;;;;;;;;5032367;28;20443;-64
2022/09/08 02:18:06;;;;;;;3.13;1.13;;;;;;;;;;5027319;28;20480;-65
2022/09/08 02:20:35;;;;;;;6.63;1.20;;;;;;;;;;5012423;28;20954;-64
2022/09/08 02:23:02;;;;;;;3.43;1.13;;;;;;;;;;5015490;28;20440;-63
2022/09/08 02:25:30;;;;;;;6.00;1.30;;;;;;;;;;5032229;28;20526;-63
2022/09/08 02:27:58;;;;;;;2.30;1.23;;;;;;;;;;5029780;28;20450;-64
2022/09/08 02:30:26;;;;;;;2.13;1.13;;;;;;;;;;5012799;28;20936;-64
2022/09/08 02:32:53;;;;;;;3.20;1.50;;;;;;;;;;5032081;28;20492;-63
2022/09/08 02:35:20;;;;;;;2.47;1.10;;;;;;;;;;5025662;28;20828;-64
2022/09/08 02:37:49;;;;;;;2.50;1.20;;;;;;;;;;5031993;28;20492;-63
2022/09/08 02:40:17;;;;;;;5.57;1.30;;;;;;;;;;5025204;28;20502;-64
2022/09/08 02:42:47;;;;;;;2.30;1.20;;;;;;;;;;5016241;28;20450;-65
2022/09/08 02:45:15;;;;;;;3.60;1.03;;;;;;;;;;5024396;28;20438;-63
2022/09/08 02:47:43;;;;;;;2.07;0.90;;;;;;;;;;5035773;28;20778;-64
2022/09/08 02:50:11;;;;;;;3.03;1.50;;;;;;;;;;5028423;28;20493;-64
2022/09/08 02:52:38;;;;;;;2.10;1.00;;;;;;;;;;5016207;28;20447;-67
2022/09/08 02:55:07;;;;;;;3.33;1.00;;;;;;;;;;5021686;28;20439;-64
2022/09/08 02:57:35;;;;;;;2.97;1.00;;;;;;;;;;5035598;28;20997;-65
2022/09/08 03:00:03;;;;;;;3.30;1.30;;;;;;;;;;5029952;28;20439;-64
2022/09/08 03:02:30;;;;;;;1.77;0.90;;;;;;;;;;5015714;28;20440;-64
2022/09/08 03:04:58;;;;;;;2.57;1.13;;;;;;;;;;5019292;28;20460;-63
2022/09/08 03:07:26;;;;;;;4.57;1.20;;;;;;;;;;5035884;28;20450;-64
2022/09/08 03:09:53;;;;;;;3.57;1.23;;;;;;;;;;5032491;28;20481;-64
2022/09/08 03:12:26;;;;;;;3.43;1.27;;;;;;;;;;5015954;28;20447;-64
2022/09/08 03:14:54;;;;;;;2.40;1.40;;;;;;;;;;5017327;28;20423;-63
2022/09/08 03:17:22;;;;;;;3.93;1.03;;;;;;;;;;5035247;28;20995;-63
2022/09/08 03:19:49;;;;;;;2.67;1.20;;;;;;;;;;5034448;28;20517;-63
2022/09/08 03:22:18;;;;;;;2.83;1.03;;;;;;;;;;5015899;28;20502;-63
2022/09/08 03:24:46;;;;;;;2.10;1.10;;;;;;;;;;5015612;28;20447;-63
2022/09/08 03:27:22;;;;;;;2.30;1.30;;;;;;;;;;5015725;28;20447;-65
2022/09/08 03:29:52;;;;;;;2.40;1.30;;;;;;;;;;5015596;28;20855;-63
2022/09/08 03:32:19;;;;;;;2.67;1.40;;;;;;;;;;5034684;28;20528;-63
2022/09/08 03:34:47;;;;;;;2.67;1.40;;;;;;;;;;5035191;28;20823;-66
2022/09/08 03:37:15;;;;;;;4.33;1.47;;;;;;;;;;5016401;28;20966;-64
2022/09/08 03:39:42;;;;;;;5.57;1.40;;;;;;;;;;5015244;28;20443;-63
2022/09/08 03:42:10;;;;;;;3.73;1.73;;;;;;;;;;5031505;28;20444;-63
2022/09/08 03:44:37;;;;;;;2.10;1.20;;;;;;;;;;5034777;28;20457;-64
2022/09/08 03:47:06;;;;;;;2.23;1.60;;;;;;;;;;5033097;28;20474;-64
2022/09/08 03:49:34;;;;;;;5.30;1.27;;;;;;;;;;5034793;28;20438;-64
2022/09/08 03:52:03;;;;;;;2.60;1.10;;;;;;;;;;5016458;28;20455;-64
2022/09/08 03:57:17;;;;;;;3.03;1.80;;;;;;;;;;5032701;28;20481;-63
2022/09/08 03:59:45;;;;;;;4.00;1.47;;;;;;;;;;5030761;28;20440;-63
2022/09/08 04:02:14;;;;;;;2.87;1.50;;;;;;;;;;5015001;28;20444;-64
2022/09/08 04:04:42;;;;;;;4.10;1.40;;;;;;;;;;5016528;28;20447;-64
2022/09/08 04:07:09;;;;;;;3.40;1.70;;;;;;;;;;5034564;28;20482;-63
2022/09/08 04:09:37;;;;;;;3.10;1.90;;;;;;;;;;5028540;28;20438;-64
2022/09/08 04:12:05;;;;;;;2.70;1.47;;;;;;;;;;5020224;28;20487;-65
2022/09/08 04:14:33;;;;;;;3.20;1.77;;;;;;;;;;5025728;28;20465;-65
2022/09/08 04:17:01;;;;;;;3.30;1.30;;;;;;;;;;5028792;28;22399;-64
2022/09/08 04:19:29;;;;;;;2.73;1.30;;;;;;;;;;5030843;28;20503;-64
2022/09/08 04:21:57;;;;;;;2.50;1.30;;;;;;;;;;5032346;28;20467;-65
2022/09/08 04:24:25;;;;;;;2.33;1.50;;;;;;;;;;5030900;28;20439;-64
2022/09/08 04:26:52;;;;;;;2.83;1.60;;;;;;;;;;5030968;28;20449;-64
2022/09/08 04:29:20;;;;;;;2.27;1.00;;;;;;;;;;5031699;28;20488;-64
2022/09/08 04:31:49;;;;;;;2.30;1.40;;;;;;;;;;5032669;28;20948;-63
2022/09/08 04:34:17;;;;;;;3.00;1.87;;;;;;;;;;5022370;28;20550;-64
2022/09/08 04:36:46;;;;;;;2.60;1.80;;;;;;;;;;5013190;28;20508;-64
2022/09/08 04:39:16;;;;;;;2.33;1.43;;;;;;;;;;5020994;28;20450;-64
2022/09/08 04:41:44;;;;;;;3.17;1.60;;;;;;;;;;5032618;28;20487;-63
2022/09/08 04:44:11;;;;;;;3.43;1.50;;;;;;;;;;5031773;28;20513;-63
2022/09/08 04:46:39;;;;;;;2.70;1.30;;;;;;;;;;5032574;28;20459;-64
2022/09/08 04:49:07;;;;;;;2.40;1.40;;;;;;;;;;5030795;28;20442;-68
2022/09/08 04:51:36;;;;;;;4.73;1.50;;;;;;;;;;5032089;28;20440;-64
2022/09/08 04:54:05;;;;;;;6.00;1.70;;;;;;;;;;5023750;28;20518;-65
2022/09/08 04:56:33;;;;;;;2.63;1.20;;;;;;;;;;5014099;28;20593;-64
2022/09/08 04:59:01;;;;;;;3.97;1.43;;;;;;;;;;5019920;28;20835;-64
2022/09/08 05:01:30;;;;;;;2.53;1.50;;;;;;;;;;5033425;28;20442;-64
2022/09/08 05:03:59;;;;;;;4.60;1.20;;;;;;;;;;5018701;28;20485;-64
2022/09/08 05:06:26;;;;;;;3.77;1.27;;;;;;;;;;5013300;28;20438;-63
2022/09/08 05:08:56;;;;;;;2.83;1.27;;;;;;;;;;5023968;28;20796;-66
2022/09/08 05:11:26;;;;;;;2.57;1.20;;;;;;;;;;5015135;28;20473;-64
2022/09/08 05:13:53;;;;;;;2.57;0.93;;;;;;;;;;5013444;28;20450;-64
2022/09/08 05:16:22;;;;;;;2.10;1.10;;;;;;;;;;5023639;28;20804;-63
2022/09/08 05:18:49;;;;;;;3.50;0.70;;;;;;;;;;5032908;28;20534;-64
2022/09/08 05:21:17;;;;;;;1.90;0.80;;;;;;;;;;5023146;28;20513;-64
2022/09/08 05:23:45;;;;;;;2.27;1.10;;;;;;;;;;5013182;28;20452;-64
2022/09/08 05:26:14;;;;;;;1.67;0.70;;;;;;;;;;5021159;28;20434;-64
2022/09/08 05:28:44;;;;;;;1.70;0.63;;;;;;;;;;5032391;28;20948;-64
2022/09/08 05:31:14;;;;;;;1.67;0.73;;;;;;;;;;5024987;28;20480;-63
2022/09/08 05:33:41;;;;;;;2.83;0.80;;;;;;;;;;5013135;28;20439;-63
2022/09/08 05:36:10;;;;;;;6.90;1.10;;;;;;;;;;5019809;28;20443;-64
2022/09/08 05:38:37;;;;;;;4.40;1.07;;;;;;;;;;5032712;28;20539;-64
2022/09/08 05:41:05;;;;;;;2.60;1.30;;;;;;;;;;5021990;28;20954;-64
2022/09/08 05:43:32;;;;;;;2.57;1.30;;;;;;;;;;5013421;28;20807;-64
2022/09/08 05:46:01;;;;;;;1.80;0.80;;;;;;;;;;5027996;28;20436;-65
2022/09/08 05:48:29;;;;;;;2.30;0.93;;;;;;;;;;5031377;28;20981;-68
2022/09/08 05:50:56;;;;;;;3.60;0.87;;;;;;;;;;5026754;28;20526;-63
2022/09/08 05:53:23;;;;;;;3.60;0.80;;;;;;;;;;5032574;28;20434;-64
2022/09/08 05:55:58;;;;;;;2.10;0.80;;;;;;;;;;5045301;28;20433;-63
2022/09/08 05:58:26;;;;;;;2.90;0.67;;;;;;;;;;5037751;28;20569;-63
2022/09/08 06:00:57;;;;;;;2.10;0.80;;;;;;;;;;5027160;28;20472;-64
2022/09/08 06:03:27;;;;;;;2.87;1.77;;;;;;;;;;5011986;28;20446;-65
2022/09/08 06:05:55;;;;;;;3.70;2.30;;;;;;;;;;5012692;28;20513;-63
2022/09/08 06:08:22;;;;;;;2.13;0.97;;;;;;;;;;5016922;28;20434;-64
2022/09/08 06:10:50;;;;;;;4.10;1.00;;;;;;;;;;5028024;28;20469;-64
2022/09/08 06:13:17;;;;;;;2.30;1.10;;;;;;;;;;5012446;28;20851;-63
2022/09/08 06:15:45;;;;;;;1.80;0.80;;;;;;;;;;5006798;28;20962;-64
2022/09/08 06:18:13;;;;;;;1.60;0.70;;;;;;;;;;5023558;28;20477;-63
2022/09/08 06:20:43;;;;;;;1.73;0.70;;;;;;;;;;5032417;28;20443;-63
2022/09/08 06:23:10;;;;;;;2.70;1.23;;;;;;;;;;5032635;28;20453;-63
2022/09/08 06:25:41;;;;;;;4.73;0.97;;;;;;;;;;5032707;28;20849;-64
2022/09/08 06:28:15;;;;;;;1.70;0.80;;;;;;;;;;5032452;28;20492;-63
2022/09/08 06:30:43;;;;;;;2.10;0.83;;;;;;;;;;5032753;28;20517;-64
2022/09/08 06:33:13;;;;;;;5.73;1.00;;;;;;;;;;5032215;28;20587;-63
2022/09/08 06:35:44;;;;;;;3.97;2.40;;;;;;;;;;5032550;28;20913;-63
2022/09/08 06:38:14;;;;;;;6.83;2.03;;;;;;;;;;5032666;28;20485;-63
2022/09/08 06:40:43;;;;;;;5.27;2.90;;;;;;;;;;5032337;28;20525;-63
2022/09/08 06:43:14;;;;;;;2.70;0.93;;;;;;;;;;5032578;28;20446;-63
2022/09/08 06:45:43;;;;;;;3.53;1.33;;;;;;;;;;5032135;28;20991;-63
2022/09/08 06:48:19;;;;;;;3.87;1.50;;;;;;;;;;5032135;28;20532;-64
2022/09/08 06:50:53;;;;;;;8.20;3.90;;;;;;;;;;5032409;28;20492;-63
2022/09/08 06:53:24;;;;;;;2.13;0.90;;;;;;;;;;5032519;28;20979;-64
2022/09/08 06:55:54;;;;;;;3.67;2.93;;;;;;;;;;5030045;28;20519;-63
2022/09/08 06:58:25;;;;;;;2.40;1.13;;;;;;;;;;5037266;28;20887;-64
2022/09/08 07:00:59;;;;;;;1.97;1.10;;;;;;;;;;5038339;28;20462;-64
2022/09/08 07:03:34;;;;;;;1.90;1.00;;;;;;;;;;5038259;28;20488;-64
2022/09/08 07:06:04;;;;;;;2.40;1.10;;;;;;;;;;5033544;28;20495;-63
2022/09/08 07:08:40;;;;;;;2.00;0.80;;;;;;;;;;5035112;28;20438;-63
2022/09/08 07:11:19;;;;;;;3.27;0.90;;;;;;;;;;5033636;28;20463;-64
2022/09/08 07:13:52;;;;;;;3.10;1.00;;;;;;;;;;5034902;28;20506;-63
2022/09/08 07:16:24;;;;;;;4.57;0.60;;;;;;;;;;5034001;28;20452;-63
2022/09/08 07:18:59;;;;;;;2.10;0.70;;;;;;;;;;5034063;28;20485;-63
2022/09/08 07:21:31;;;;;;;2.30;0.87;;;;;;;;;;5034868;28;20564;-65
2022/09/08 07:24:01;;;;;;;5.20;0.90;;;;;;;;;;5036141;28;20790;-64
2022/09/08 07:26:32;;;;;;;1.90;0.90;;;;;;;;;;5033378;28;20529;-64
2022/09/08 07:29:04;;;;;;;2.00;0.63;;;;;;;;;;5036861;28;20472;-63
2022/09/08 07:31:31;;;;;;;1.60;0.70;;;;;;;;;;5037198;28;20452;-65
2022/09/08 07:34:05;;;;;;;1.90;0.83;;;;;;;;;;5036282;28;20450;-64
2022/09/08 07:36:38;;;;;;;1.80;0.70;;;;;;;;;;5036012;28;20495;-63
2022/09/08 07:39:13;;;;;;;2.20;0.80;;;;;;;;;;5037133;28;20488;-63
2022/09/08 07:41:45;;;;;;;1.80;0.90;;;;;;;;;;5040447;28;20459;-64
2022/09/08 07:44:14;;;;;;;2.30;0.80;;;;;;;;;;5039827;28;20438;-63
2022/09/08 07:46:46;;;;;;;1.80;0.80;;;;;;;;;;5038212;28;20476;-63
2022/09/08 07:49:16;;;;;;;2.00;0.87;;;;;;;;;;5038398;28;20535;-64
2022/09/08 07:51:51;;;;;;;2.20;0.70;;;;;;;;;;5039588;28;20449;-64
2022/09/08 07:54:26;;;;;;;2.20;0.80;;;;;;;;;;5038456;28;20478;-64
2022/09/08 07:57:00;;;;;;;1.70;0.63;;;;;;;;;;5035463;28;20452;-64
2022/09/08 07:59:35;;;;;;;8.60;1.63;;;;;;;;;;5037217;28;20496;-63
2022/09/08 08:02:04;;;;;;;2.00;0.83;;;;;;;;;;5035814;28;20438;-64
2022/09/08 08:04:39;;;;;;;3.00;0.70;;;;;;;;;;5035103;28;20449;-64
2022/09/08 08:07:10;;;;;;;1.80;0.73;;;;;;;;;;5034495;28;20446;-63
2022/09/08 08:09:41;;;;;;;1.90;0.90;;;;;;;;;;5038852;28;20441;-64
2022/09/08 08:12:13;;;;;;;2.33;0.73;;;;;;;;;;5038865;28;20451;-64
2022/09/08 08:14:47;;;;;;;2.97;1.10;;;;;;;;;;5038864;28;20499;-64
2022/09/08 08:17:21;;;;;;;1.80;0.80;;;;;;;;;;5036746;28;20529;-63
2022/09/08 08:20:04;;;;;;;3.80;0.90;;;;;;;;;;5037361;28;20828;-63
2022/09/08 08:22:42;;;;;;;1.97;0.80;;;;;;;;;;5033465;28;20845;-64
2022/09/08 08:25:13;;;;;;;2.10;0.70;;;;;;;;;;5033248;28;20477;-63
2022/09/08 08:27:45;;;;;;;2.03;0.90;;;;;;;;;;5037884;28;20940;-64
2022/09/08 08:30:17;;;;;;;1.60;0.63;;;;;;;;;;5038204;28;20499;-64
2022/09/08 08:32:46;;;;;;;1.77;0.60;;;;;;;;;;5037953;28;20477;-63
2022/09/08 08:35:20;;;;;;;1.93;0.60;;;;;;;;;;5036394;28;20442;-64
2022/09/08 08:37:50;;;;;;;1.70;0.60;;;;;;;;;;5036068;28;20461;-63
2022/09/08 08:40:28;;;;;;;3.20;0.60;;;;;;;;;;5037680;28;21551;-63
2022/09/08 08:43:01;;;;;;;2.93;0.67;;;;;;;;;;5036171;28;20452;-63
2022/09/08 08:45:34;;;;;;;1.90;0.70;;;;;;;;;;5035121;28;20799;-64
2022/09/08 08:48:09;;;;;;;1.60;0.60;;;;;;;;;;5033219;28;20938;-63
2022/09/08 08:50:57;;;;;;;1.80;0.70;;;;;;;;;;5033953;28;20927;-64
2022/09/08 08:53:45;;;;;;;3.70;0.70;;;;;;;;;;5033086;28;20874;-63
2022/09/08 08:56:17;;;;;;;2.10;0.77;;;;;;;;;;5034786;28;20515;-64
2022/09/08 08:58:49;;;;;;;7.93;0.80;;;;;;;;;;5037996;28;20829;-67
2022/09/08 09:01:34;;;;;;;1.70;0.60;;;;;;;;;;5038365;28;20544;-64
2022/09/08 09:04:15;;;;;;;2.00;0.80;;;;;;;;;;5032589;28;20445;-64
2022/09/08 09:06:55;;;;;;;2.10;1.10;;;;;;;;;;5031213;28;20445;-64
2022/09/08 09:09:33;;;;;;;1.73;0.67;;;;;;;;;;5037397;28;20467;-63
2022/09/08 09:12:11;;;;;;;1.80;0.60;;;;;;;;;;5036162;28;20437;-64
2022/09/08 09:14:53;;;;;;;1.60;0.60;;;;;;;;;;5034029;28;20448;-64
2022/09/08 09:17:38;;;;;;;2.67;0.80;;;;;;;;;;5035276;28;20441;-64
2022/09/08 09:20:18;;;;;;;2.47;0.70;;;;;;;;;;5032904;28;21065;-64
2022/09/08 09:22:50;;;;;;;1.70;0.70;;;;;;;;;;5033873;28;20465;-64
2022/09/08 09:25:22;;;;;;;3.33;0.73;;;;;;;;;;5034737;28;20446;-64
2022/09/08 09:27:53;;;;;;;2.67;0.60;;;;;;;;;;5035579;28;20983;-64
2022/09/08 09:30:22;;;;;;;5.33;1.40;;;;;;;;;;5035128;28;20456;-63
2022/09/08 09:33:14;;;;;;;4.13;2.17;;;;;;;;;;5033855;28;20951;-63
2022/09/08 09:35:59;;;;;;;2.30;0.90;;;;;;;;;;5030042;28;20442;-64
2022/09/08 09:38:39;;;;;;;3.60;0.87;;;;;;;;;;5033942;28;20455;-64
2022/09/08 09:41:24;;;;;;;2.00;0.67;;;;;;;;;;5030576;28;20438;-64
2022/09/08 09:44:00;;;;;;;2.87;0.70;;;;;;;;;;5031930;28;20445;-64
2022/09/08 09:46:41;;;;;;;1.87;0.67;;;;;;;;;;5032346;28;20449;-63
2022/09/08 09:49:21;;;;;;;1.70;0.60;;;;;;;;;;5030917;28;20487;-64
2022/09/08 09:51:59;;;;;;;2.50;1.30;;;;;;;;;;5031691;28;20449;-65
2022/09/08 09:54:38;;;;;;;4.53;3.00;;;;;;;;;;5031482;28;20812;-67
2022/09/08 09:57:28;;;;;;;7.10;1.20;;;;;;;;;;5028942;28;20441;-64
2022/09/08 10:00:13;;;;;;;1.70;0.70;;;;;;;;;;5039236;28;20528;-64
2022/09/08 10:02:51;;;;;;;1.70;0.50;;;;;;;;;;5032143;28;20437;-64
2022/09/08 10:05:37;;;;;;;1.77;0.60;;;;;;;;;;5037668;28;20904;-64
2022/09/08 10:08:22;;;;;;;1.70;0.50;;;;;;;;;;5034917;28;20438;-64
2022/09/08 10:10:53;;;;;;;1.70;0.60;;;;;;;;;;5032494;28;20523;-64
2022/09/08 10:13:34;;;;;;;2.00;0.50;;;;;;;;;;5031223;28;20515;-63
2022/09/08 10:16:22;;;;;;;1.60;0.57;;;;;;;;;;5044289;28;20837;-64
2022/09/08 10:19:09;;;;;;;2.00;0.57;;;;;;;;;;5043477;28;20437;-63
2022/09/08 10:21:52;;;;;;;1.80;0.50;;;;;;;;;;5022292;28;20955;-63
2022/09/08 10:24:46;;;;;;;1.83;0.50;;;;;;;;;;5040839;28;20452;-64
2022/09/08 10:27:36;;;;;;;1.90;0.60;;;;;;;;;;5041282;28;20468;-63
2022/09/08 10:30:21;;;;;;;1.77;0.60;;;;;;;;;;5044507;28;20951;-64
2022/09/08 10:33:15;;;;;;;1.60;0.50;;;;;;;;;;5037627;28;20488;-64
2022/09/08 10:35:43;;;;;;;1.60;0.60;;;;;;;;;;5040435;28;20441;-64
2022/09/08 10:38:22;;;;;;;5.40;1.00;;;;;;;;;;5041847;28;20540;-64
2022/09/08 10:41:04;;;;;;;4.10;2.97;;;;;;;;;;5039573;28;20495;-64
2022/09/08 10:43:49;;;;;;;3.80;2.43;;;;;;;;;;5030359;28;20453;-64
2022/09/08 10:46:31;;;;;;;1.70;0.60;;;;;;;;;;5029924;28;20445;-64
2022/09/08 10:49:31;;;;;;;1.67;0.60;;;;;;;;;;5033475;28;20485;-64
2022/09/08 10:52:15;;;;;;;1.70;0.60;;;;;;;;;;4960780;28;20524;-63
2022/09/08 10:54:53;;;;;;;1.80;0.60;;;;;;;;;;4965107;28;20432;-64
2022/09/08 10:57:26;;;;;;;2.20;0.70;;;;;;;;;;5010219;28;20436;-63
2022/09/08 11:00:06;;;;;;;2.40;0.60;;;;;;;;;;5034422;28;20485;-63
2022/09/08 11:02:39;;;;;;;1.80;0.70;;;;;;;;;;5035164;28;20472;-64
2022/09/08 11:05:24;;;;;;;1.90;0.70;;;;;;;;;;5034010;28;20940;-67
2022/09/08 11:08:21;;;;;;;1.87;0.53;;;;;;;;;;5036294;28;20453;-63
2022/09/08 11:10:56;;;;;;;2.00;0.63;;;;;;;;;;5033112;28;20527;-64
2022/09/08 11:13:26;;;;;;;2.90;0.53;;;;;;;;;;5033187;28;20451;-64
2022/09/08 11:16:12;;;;;;;2.40;0.53;;;;;;;;;;5016239;28;20530;-63
2022/09/08 11:18:51;;;;;;;1.50;0.60;;;;;;;;;;5018370;28;20438;-63
2022/09/08 11:21:26;;;;;;;1.50;0.50;;;;;;;;;;5035091;28;20445;-63
2022/09/08 11:23:58;;;;;;;1.70;0.57;;;;;;;;;;5021804;28;20841;-64
2022/09/08 11:26:42;;;;;;;1.70;0.70;;;;;;;;;;5016751;28;20446;-63
2022/09/08 11:29:14;;;;;;;1.50;0.50;;;;;;;;;;5016145;28;20882;-63
2022/09/08 11:31:49;;;;;;;1.60;0.50;;;;;;;;;;5026478;28;20448;-63
2022/09/08 11:37:31;;;;;;;1.70;0.60;;;;;;;;;;5088591;28;20546;-63
2022/09/08 11:40:05;;;;;;;1.70;0.60;;;;;;;;;;5089605;28;20443;-64
2022/09/08 11:42:40;;;;;;;1.70;0.60;;;;;;;;;;5088815;28;20518;-64
2022/09/08 11:45:14;;;;;;;1.80;0.67;;;;;;;;;;5087511;28;20987;-65
2022/09/08 11:47:46;;;;;;;2.00;0.70;;;;;;;;;;5089665;28;20440;-63
2022/09/08 11:50:23;;;;;;;2.07;0.60;;;;;;;;;;5090124;28;20526;-64
2022/09/08 11:52:59;;;;;;;1.70;0.60;;;;;;;;;;5090242;28;20439;-63
2022/09/08 11:55:44;;;;;;;1.60;0.60;;;;;;;;;;5090274;28;20574;-64
2022/09/08 11:58:26;;;;;;;1.87;0.60;;;;;;;;;;5089863;28;20430;-64
2022/09/08 12:01:05;;;;;;;3.50;0.80;;;;;;;;;;5090124;28;20836;-64
2022/09/08 12:03:38;;;;;;;4.03;0.60;;;;;;;;;;5089670;28;20482;-68
2022/09/08 12:06:38;;;;;;;1.60;0.60;;;20.80;84.90;;;;;;5089773;28;20478;-64
2022/09/08 12:09:24;;;;;;;1.77;0.60;;;;;;;;;;5084649;28;20447;-64
2022/09/08 12:12:03;;;;;;;1.80;0.60;;;;;;;;;;5089971;28;20435;-63
2022/09/08 12:14:34;;;;;;;2.60;0.80;;;;;;;;;;5089952;28;20500;-64
2022/09/08 12:17:06;;;;;;;2.07;0.67;;;;;;;;;;5089364;28;20544;-63
2022/09/08 12:19:40;;;;;;;1.70;0.60;;;;;;;;;;5089942;28;20443;-64
2022/09/08 12:22:13;;;;;;;1.70;0.70;;;;;;;;;;5089791;28;20443;-64
2022/09/08 12:24:48;;;;;;;1.90;0.67;;;;;;;;;;5089567;28;20439;-63
2022/09/08 12:27:27;;;;;;;1.90;0.80;;;37.90;28.20;;;;;;5089132;28;20426;-64
2022/09/08 12:30:05;;;;;;;2.00;0.77;;;34.40;33.10;;;;;;5090016;28;20439;-63
2022/09/08 12:33:02;;;;;;;1.90;0.60;;;33.60;30.00;;;;;;5089284;28;20842;-64
2022/09/08 12:35:33;;;;;;;2.23;1.00;;;33.00;31.30;;;;;;5089065;28;20905;-64
2022/09/08 12:38:20;;;;;;;2.80;0.87;;;32.50;31.30;;;;;;5089228;28;20836;-64
2022/09/08 12:41:21;;;;;;;2.70;0.70;;;32.00;31.70;;;;;;5089604;28;20563;-63
2022/09/08 12:43:56;;;;;;;2.37;0.97;;;31.50;32.80;;;;;;5085129;28;20443;-63
2022/09/08 12:46:34;;;;;;;2.23;0.80;;;31.50;36.00;;;;;;5088856;28;20522;-64
2022/09/08 12:49:58;;;;;;;1.80;0.63;;;31.60;35.00;;;;;;5075781;28;20519;-63
2022/09/08 12:52:41;;;;;;;1.80;0.60;;;31.90;36.70;;;;;;5013509;28;20469;-64
2022/09/08 12:55:19;;;;;;;1.80;0.70;;;32.40;36.50;;;;;;5075640;28;20531;-64
2022/09/08 12:57:54;;;;;;;3.10;0.60;;;32.60;34.90;;;;;;5075463;28;20463;-64
2022/09/08 13:00:27;;;;;;;1.83;0.70;;;32.50;34.10;;;;;;5075716;28;20439;-63
2022/09/08 13:03:28;;;;;;;3.73;0.70;;;32.10;34.20;;;;;;5075539;28;20436;-64
2022/09/08 13:06:28;;;;;;;1.80;0.60;;;31.70;34.50;;;;;;5075165;28;20933;-63
2022/09/08 13:08:59;;;;;;;1.87;0.80;;;31.30;34.40;;;;;;5075583;28;20523;-63
2022/09/08 13:11:49;;;;;;;2.20;0.70;;;31.00;34.10;;;;;;5075610;28;20466;-68
2022/09/08 13:14:28;;;;;;;1.97;0.70;;;30.70;34.40;;;;;;5075334;28;20439;-63
2022/09/08 13:17:04;;;;;;;2.33;0.90;;;30.40;34.90;;;;;;5075397;28;20487;-63
2022/09/08 13:19:32;;;;;;;2.10;0.70;;;30.10;35.80;;;;;;5075148;28;20530;-63
2022/09/08 13:22:24;;;;;;;2.23;0.73;;;29.80;35.00;;;;;;5075191;28;20476;-64
2022/09/08 13:25:00;;;;;;;2.23;0.73;;;29.60;37.60;;;;;;5071598;28;20968;-63
2022/09/08 13:27:45;;;;;;;1.70;0.67;;;29.30;37.10;;;;;;5075031;28;20523;-65
2022/09/08 13:30:15;;;;;;;2.00;0.93;;;29.10;36.90;;;;;;5074826;28;20523;-63
2022/09/08 13:33:09;;;;;;;2.10;0.93;;;28.80;37.00;;;;;;5074466;28;20439;-65
2022/09/08 13:35:59;;;;;;;2.53;0.90;;;28.50;37.50;;;;;;5045566;28;20464;-64
2022/09/08 13:38:39;;;;;;;2.53;0.73;;;28.20;38.60;;;;;;5045403;28;20497;-63
2022/09/08 13:41:20;;;;;;;2.30;0.70;;;28.20;41.10;;;;;;5074856;28;20436;-64
2022/09/08 13:44:18;;;;;;;2.80;0.70;;;28.20;38.90;;;;;;5074504;28;20932;-63
2022/09/08 13:47:03;;;;;;;1.63;0.60;;;28.10;39.20;;;;;;5074766;28;20436;-68
2022/09/08 13:49:50;;;;;;;2.50;0.60;;;28.00;39.10;;;;;;5074835;28;20519;-63
2022/09/08 13:52:40;;;;;;;2.27;0.87;;;27.80;39.90;;;;;;5074434;28;20486;-63
2022/09/08 13:55:40;;;;;;;2.40;0.77;;;27.60;39.50;;;;;;5074290;28;20502;-64
2022/09/08 13:58:32;;;;;;;3.40;1.07;;;27.40;40.20;;;;;;5073855;28;20911;-64
2022/09/08 14:01:06;;;;;;;4.53;1.00;;;27.20;40.70;;;;;;5073935;28;20511;-64
2022/09/08 14:03:38;;;;;;;2.60;0.77;;;27.20;40.00;;;;;;5074660;28;20444;-64
2022/09/08 14:06:11;;;;;;;4.00;1.70;;;27.10;39.20;;;;;;5073795;28;20473;-63
2022/09/08 14:08:47;;;;;;;2.17;0.80;;;27.00;39.00;;;;;;5074009;28;20851;-65
2022/09/08 14:11:29;;;;;;;3.20;1.90;;;26.90;38.80;;;;;;5074283;28;20432;-63
2022/09/08 14:14:38;;;;;;;4.53;2.93;;;26.70;38.60;;;;;;5074234;28;20795;-63
2022/09/08 14:17:26;;;;;;;2.40;0.93;;;26.60;39.30;;;;;;5058455;28;20518;-63
2022/09/08 14:20:00;;;;;;;3.17;1.00;;;26.40;39.40;;;;;;5073914;28;20440;-64
2022/09/08 14:22:40;;;;;;;2.93;0.93;;;26.20;39.30;;;;;;5073932;28;20472;-65
2022/09/08 14:25:16;;;;;;;2.00;0.90;;;26.10;40.00;;;;;;5073865;28;20930;-63
2022/09/08 14:28:02;;;;;;;3.73;1.50;;;26.00;40.60;;;;;;5073659;28;20518;-63
2022/09/08 14:30:35;;;;;;;4.97;2.47;;;25.90;40.70;;;;;;5073789;28;20809;-64
2022/09/08 14:33:19;;;;;;;4.37;2.80;;;25.80;40.60;;;;;;5073827;28;20444;-63
2022/09/08 14:35:47;;;;;;;3.17;1.03;;;25.70;41.30;;;;;;5073329;28;20540;-64
2022/09/08 14:38:48;;;;;;;2.13;0.90;;;25.60;41.40;;;;;;5073747;28;20479;-64
2022/09/08 14:41:32;;;;;;;2.43;0.93;;;25.50;41.30;;;;;;5073455;28;20440;-63
2022/09/08 14:44:24;;;;;;;2.90;0.80;;;25.30;41.70;;;;;;5073322;28;20432;-64
2022/09/08 14:46:54;;;;;;;1.90;0.73;;;25.10;42.00;;;;;;5068098;28;20479;-65
2022/09/08 14:49:47;;;;;;;2.40;0.70;;;24.90;41.80;;;;;;5073375;28;20440;-63
2022/09/08 14:52:30;;;;;;;2.43;0.93;;;24.80;43.40;;;;;;5073380;28;20479;-64
2022/09/08 14:55:12;;;;;;;2.07;0.80;;;24.60;43.00;;;;;;5073408;28;20530;-64
2022/09/08 14:57:44;;;;;;;1.90;0.80;;;24.50;43.10;;;;;;5072927;28;20877;-63
2022/09/08 15:00:21;;;;;;;4.97;0.90;;;24.50;43.60;;;;;;5072781;28;20922;-63
2022/09/08 15:02:55;;;;;;;2.23;1.07;;;24.40;44.00;;;;;;5066553;28;20471;-63
2022/09/08 15:05:27;;;;;;;3.20;1.97;;;24.40;43.50;;;;;;5071385;28;20471;-63
2022/09/08 15:07:57;;;;;;;2.43;1.30;;;24.30;42.80;;;;;;5070991;28;20444;-63
2022/09/08 15:10:35;;;;;;;2.50;1.30;;;24.20;42.80;;;;;;5069381;28;20523;-63